首页
METAR-TAF:

METAR-TAF

机场 :

悉尼, 新斯科舍, 加拿大

纬度: 46-10N, 经度: 060-03W, 海拔: 56米

当前天气观测

该预报发布于34分钟前的20:00 UTC
风速10节,风向南转南东
温度 -6°C
湿度 62%
气压 1034 hPa
能見度: 24.1公里
多云层高于24000英尺

METAR: CYQY 212000Z 15010KT 15SM BKN240 M06/M12 A3052 RMK CI6 SLP341

时间: 16:34 (20:34 UTC)

预报

该预报发布于2小时和54分钟前的17:40 UTC
预报有效从21日的 18点(UTC)到 22日的 06点(UTC)
风速3节,风向多变
能見度: 10公里
少量云层高于2000英尺
散云层高于24000英尺
成为
从 21日的 19点(UTC)到 21日的 21点(UTC)
风速8节,风向南转南东
成为
从 22日的 00点(UTC)到 22日的 02点(UTC)
风速3节,风向多变

TAF: CYQY 211740Z 2118/2206 VRB03KT P6SM FEW020 SCT240 BECMG 2119/2121 16008KT BECMG 2200/2202 VRB03KT RMK NXT FCST BY 220000Z

超过4000个机场的气象观测和天气预报(METAR&TAF报告)。

可查询的气象台以黄色和红色小点在地图上表示。

将鼠标移到小点上方,可查看气象台名称。

然后点击查看天气观测和预报。

如需切换地图:点击带黑十字的绿色按钮放大地图;点击带横线的绿色按钮缩小地图;或者点击绿色箭头查看邻近地区的地图。


METAR-TAF: